Αρχική σελίδα
METAR-TAF:

METAR-TAF

Αεροδρόμια :

Pohnpei, Μικρονησία

γεωγραφικό πλάτος: 06-59N, γεωγραφικό μήκος: 158-12E, υψόμετρο: 2 μ

Παρών καιρός

Η αναφορά έγινε 17 ώρες και 40 λεπτά πριν, στις 04:51 UTC
Άνεμος 3 kt από Ν/NA
Θερμοκρασία 29°C
Υγρασία 84%
Πίεση 1005 hPa
Ορατότητα: 24.1 χλμ
Αρκετά νέφη σε ύψος 1800 πόδια, Σωρείτες καθέτου αναπτύξεως.
Αρκετά νέφη σε ύψος 13000 πόδια
Νεφοσκεπής σε ύψος 30000 πόδια

METAR: PTPN 250451Z 16003KT 15SM BKN018TCU BKN130 OVC300 29/26 A2968 RMK TCU E-W

Χρόνος: 09:31 (22:31 UTC)

Πρόγνωση Καιρού

Η αναφορά έγινε 17 ώρες και 1 λεπτά πριν, στις 05:30 UTC
Η πρόγνωση ισχύει από τις 25 στις 06 UTC έως τις 26 στις 06 UTC
Άνεμος 5 kt από Ν/NA
Ορατότητα: 10 χλμ
Αρκετά νέφη σε ύψος 1800 πόδια
Αρκετά νέφη σε ύψος 13000 πόδια
Όμβροι σε κοντινή απόσταση

TAF: PTPN 250530Z 2506/2606 15005KT P6SM VCSH BKN018 BKN130

Μετεωρολογικές αναφορές και προγνώσεις για περισσότερα από 4000 αεροδρόμια (δελτία METAR και TAF).

Οι διαθέσιμοι σταθμοί απεικονίζονται στο χάρτη με κίτρινες και κόκκινες κουκκίδες.

Μετακινήστε το ποντίκι πάνω από τις κουκκίδες για να δείτε το όνομα του σταθμού.

Στη συνέχεια, κάντε κλικ για να δείτε τις μετεωρολογικές αναφορές και τις προγνώσεις καιρού.

Για να αλλάξετε το χάρτη: κάντε κλικ στα πράσινα κουμπιά με τον μαύρο σταυρό για να ζουμάρετε, στο πράσινο κουμπί με την παύλα για να αφαιρέσετε το ζουμ ή στα πράσινα βέλη για να αντιπαραβάλλετε χάρτες.


METAR-TAF: